createdAt,value
2019-03-22T00:00:59.243Z,8.50
2019-03-22T00:03:29.450Z,8.50
2019-03-22T00:05:59.567Z,8.60
2019-03-22T00:08:29.740Z,8.60
2019-03-22T00:10:59.958Z,8.60
2019-03-22T00:13:30.119Z,8.60
2019-03-22T00:16:00.285Z,8.60
2019-03-22T00:18:30.422Z,8.60
2019-03-22T00:21:00.587Z,8.60
2019-03-22T00:23:30.757Z,8.60
2019-03-22T00:26:00.893Z,8.60
2019-03-22T00:28:31.065Z,8.60
2019-03-22T00:31:01.207Z,8.60
2019-03-22T00:33:31.361Z,8.60
2019-03-22T00:36:01.558Z,8.60
2019-03-22T00:38:31.702Z,8.70
2019-03-22T00:41:02.834Z,8.70
2019-03-22T00:43:32.985Z,8.70
2019-03-22T00:46:03.127Z,8.70
2019-03-22T00:48:33.254Z,8.60
2019-03-22T00:51:03.380Z,8.60
2019-03-22T00:53:33.577Z,8.70
2019-03-22T00:56:03.949Z,8.60
2019-03-22T00:58:34.087Z,8.60
2019-03-22T01:01:04.352Z,8.60
2019-03-22T01:03:34.514Z,8.60
2019-03-22T01:06:04.744Z,8.70
2019-03-22T01:08:34.930Z,8.70
2019-03-22T01:11:05.175Z,8.60
2019-03-22T01:13:35.311Z,8.70
2019-03-22T01:16:05.474Z,8.60
2019-03-22T01:18:35.619Z,8.60
2019-03-22T01:21:05.761Z,8.60
2019-03-22T01:23:35.914Z,8.60
2019-03-22T01:26:06.120Z,8.60
2019-03-22T01:28:36.306Z,8.60
2019-03-22T01:31:06.458Z,8.50
2019-03-22T01:33:36.608Z,8.50
2019-03-22T01:36:06.759Z,8.50
2019-03-22T01:38:36.920Z,8.60
2019-03-22T01:41:07.126Z,8.50
2019-03-22T01:43:37.298Z,8.50
2019-03-22T01:46:07.438Z,8.40
2019-03-22T01:48:37.809Z,8.40
2019-03-22T01:51:08.050Z,8.40
2019-03-22T01:53:38.198Z,8.40
2019-03-22T01:56:08.354Z,8.50
2019-03-22T01:58:38.806Z,8.60
2019-03-22T02:01:09.046Z,8.50
2019-03-22T02:03:40.169Z,8.50
2019-03-22T02:06:10.394Z,8.50
2019-03-22T02:08:40.554Z,8.50
2019-03-22T02:11:10.702Z,8.50
2019-03-22T02:13:40.894Z,8.50
2019-03-22T02:16:11.102Z,8.50
2019-03-22T02:18:41.265Z,8.40
2019-03-22T02:21:11.403Z,8.40
2019-03-22T02:23:41.634Z,8.30
2019-03-22T02:26:11.805Z,8.30
2019-03-22T02:28:42.946Z,8.40
2019-03-22T02:31:13.235Z,8.40
2019-03-22T02:33:43.413Z,8.30
2019-03-22T02:36:13.568Z,8.30
2019-03-22T02:38:43.966Z,8.30
2019-03-22T02:41:14.176Z,8.30
2019-03-22T02:43:44.334Z,8.30
2019-03-22T02:46:14.466Z,8.30
2019-03-22T02:48:44.642Z,8.30
2019-03-22T02:51:14.787Z,8.30
2019-03-22T02:53:45.003Z,8.30
2019-03-22T02:56:15.323Z,8.30
2019-03-22T02:58:45.634Z,8.30
2019-03-22T03:01:15.881Z,8.30
2019-03-22T03:03:46.149Z,8.30
2019-03-22T03:06:16.369Z,8.40
2019-03-22T03:08:46.590Z,8.40
2019-03-22T03:11:16.755Z,8.40
2019-03-22T03:13:46.932Z,8.40
2019-03-22T03:16:17.090Z,8.40
2019-03-22T03:18:47.230Z,8.40
2019-03-22T03:21:17.371Z,8.40
2019-03-22T03:23:47.567Z,8.40
2019-03-22T03:26:17.750Z,8.40
2019-03-22T03:28:48.864Z,8.40
2019-03-22T03:31:19.005Z,8.40
2019-03-22T03:33:49.186Z,8.40
2019-03-22T03:36:19.354Z,8.40
2019-03-22T03:39:01.395Z,8.40
2019-03-22T03:41:33.099Z,8.40
2019-03-22T03:44:03.571Z,8.40
2019-03-22T03:46:33.742Z,8.40
2019-03-22T03:49:04.280Z,8.40
2019-03-22T03:51:34.420Z,8.40
2019-03-22T03:54:04.755Z,8.40
2019-03-22T03:56:34.988Z,8.40
2019-03-22T03:59:05.231Z,8.40
2019-03-22T04:01:35.379Z,8.40
2019-03-22T04:04:05.694Z,8.30
2019-03-22T04:06:35.868Z,8.40
2019-03-22T04:09:08.175Z,8.30
2019-03-22T04:11:38.335Z,8.30
2019-03-22T04:14:08.554Z,8.40
2019-03-22T04:16:38.774Z,8.40
2019-03-22T04:19:08.980Z,8.50
2019-03-22T04:21:40.296Z,8.50
2019-03-22T04:24:10.450Z,8.50
2019-03-22T04:26:40.670Z,8.50
2019-03-22T04:29:10.851Z,8.50
2019-03-22T04:31:41.012Z,8.50
2019-03-22T04:34:11.195Z,8.50
2019-03-22T04:36:41.354Z,8.60
2019-03-22T04:39:11.485Z,8.60
2019-03-22T04:41:41.683Z,8.50
2019-03-22T04:44:11.836Z,8.50
2019-03-22T04:46:44.257Z,8.60
2019-03-22T04:49:16.859Z,8.60
2019-03-22T04:51:47.376Z,8.50
2019-03-22T04:54:19.686Z,8.50
2019-03-22T04:56:52.354Z,8.60
2019-03-22T04:59:23.279Z,8.50
2019-03-22T05:01:56.210Z,8.60
2019-03-22T05:04:27.049Z,8.60
2019-03-22T05:06:58.865Z,8.60
2019-03-22T05:09:31.199Z,8.50
2019-03-22T05:12:03.271Z,8.50
2019-03-22T05:14:36.092Z,8.50
2019-03-22T05:17:07.607Z,8.50
2019-03-22T05:19:41.205Z,8.50
2019-03-22T05:22:15.148Z,8.40
2019-03-22T05:24:47.838Z,8.40
2019-03-22T05:27:19.742Z,8.40
2019-03-22T05:29:52.304Z,8.40
2019-03-22T05:32:22.452Z,8.40
2019-03-22T05:34:52.684Z,8.50
2019-03-22T05:37:22.836Z,8.50
2019-03-22T05:39:52.997Z,8.50
2019-03-22T05:42:23.122Z,8.40
2019-03-22T05:44:53.281Z,8.40
2019-03-22T05:47:23.445Z,8.40
2019-03-22T05:49:53.586Z,8.40
2019-03-22T05:52:23.741Z,8.30
2019-03-22T05:54:53.927Z,8.30
2019-03-22T05:57:24.071Z,8.30
2019-03-22T05:59:54.212Z,8.20
2019-03-22T06:02:24.372Z,8.30
2019-03-22T06:04:54.506Z,8.30
2019-03-22T06:07:25.652Z,8.30
2019-03-22T06:09:55.799Z,8.30
2019-03-22T06:12:25.981Z,8.20
2019-03-22T06:14:56.138Z,8.20
2019-03-22T06:17:26.269Z,8.20
2019-03-22T06:19:56.471Z,8.20
2019-03-22T06:22:26.678Z,8.10
2019-03-22T06:24:56.840Z,8.20
2019-03-22T06:27:26.992Z,8.20
2019-03-22T06:29:57.165Z,8.20
2019-03-22T06:32:27.422Z,8.20
2019-03-22T06:34:57.558Z,8.30
2019-03-22T06:37:27.805Z,8.20
2019-03-22T06:39:57.971Z,8.20
2019-03-22T06:42:28.174Z,8.30
2019-03-22T06:44:58.323Z,8.10
2019-03-22T06:47:28.481Z,8.10
2019-03-22T06:49:59.709Z,8.10
2019-03-22T06:52:29.936Z,8.20
2019-03-22T06:55:00.138Z,8.20
2019-03-22T06:57:30.282Z,8.20
2019-03-22T07:00:06.342Z,8.20
2019-03-22T07:02:32.482Z,8.10
2019-03-22T07:05:03.889Z,8.10
2019-03-22T07:07:34.237Z,8.10
2019-03-22T07:10:05.134Z,8.20
2019-03-22T07:12:35.321Z,8.20
2019-03-22T07:15:06.372Z,8.10
2019-03-22T07:17:36.594Z,8.10
2019-03-22T07:20:07.194Z,8.10
2019-03-22T07:22:37.447Z,8.10
2019-03-22T07:25:07.669Z,8.00
2019-03-22T07:27:37.853Z,8.10
2019-03-22T07:30:18.071Z,8.00
2019-03-22T07:32:40.310Z,8.00
2019-03-22T07:35:10.635Z,8.00
2019-03-22T07:37:40.824Z,7.90
2019-03-22T07:40:11.129Z,7.80
2019-03-22T07:42:41.275Z,7.80
2019-03-22T07:45:11.662Z,7.80
2019-03-22T07:47:41.900Z,7.80
2019-03-22T07:50:12.878Z,7.90
2019-03-22T07:52:43.055Z,7.90
2019-03-22T07:55:13.207Z,7.90
2019-03-22T07:57:43.366Z,7.90
2019-03-22T08:00:14.206Z,7.80
2019-03-22T08:02:44.394Z,7.80
2019-03-22T08:05:14.682Z,7.90
2019-03-22T08:07:44.831Z,7.90
2019-03-22T08:10:15.094Z,8.00
2019-03-22T08:12:45.252Z,8.00
2019-03-22T08:15:35.429Z,7.90
2019-03-22T08:18:05.872Z,7.90
2019-03-22T08:20:38.653Z,7.90
2019-03-22T08:23:19.227Z,7.80
2019-03-22T08:25:49.639Z,7.90
2019-03-22T08:28:20.054Z,8.00
2019-03-22T08:30:50.258Z,8.00
2019-03-22T08:33:20.508Z,7.90
2019-03-22T08:35:50.811Z,7.90
2019-03-22T08:38:21.014Z,8.00
2019-03-22T08:40:51.202Z,8.00
2019-03-22T08:43:21.400Z,8.00
2019-03-22T08:45:51.598Z,8.00
2019-03-22T08:48:21.768Z,8.00
2019-03-22T08:50:51.977Z,8.10
2019-03-22T08:53:22.253Z,8.10
2019-03-22T08:55:52.445Z,7.90
2019-03-22T08:58:22.602Z,7.80
2019-03-22T09:00:57.831Z,7.90
2019-03-22T09:03:24.639Z,8.10
2019-03-22T09:05:54.797Z,8.30
2019-03-22T09:08:24.961Z,8.50
2019-03-22T09:10:55.189Z,8.60
2019-03-22T09:13:25.339Z,8.70
2019-03-22T09:15:55.497Z,8.70
2019-03-22T09:18:25.700Z,8.80
2019-03-22T09:20:56.106Z,8.80
2019-03-22T09:23:26.235Z,8.80
2019-03-22T09:25:56.433Z,8.80
2019-03-22T09:28:26.703Z,8.80
2019-03-22T09:31:09.433Z,8.90
2019-03-22T09:33:28.784Z,9.00
2019-03-22T09:35:59.290Z,8.90
2019-03-22T09:38:29.450Z,8.80
2019-03-22T09:40:59.735Z,8.90
2019-03-22T09:43:29.989Z,9.10
2019-03-22T09:46:00.454Z,9.40
2019-03-22T09:48:30.599Z,9.70
2019-03-22T09:51:00.778Z,9.90
2019-03-22T09:53:31.061Z,10.00
2019-03-22T09:56:01.309Z,10.10
2019-03-22T09:58:31.648Z,10.40
2019-03-22T10:01:01.917Z,10.60
2019-03-22T10:03:32.207Z,10.60
2019-03-22T10:06:02.365Z,10.50
2019-03-22T10:08:32.522Z,10.80
2019-03-22T10:11:02.785Z,11.30
2019-03-22T10:13:32.992Z,11.70
2019-03-22T10:16:03.272Z,11.80
2019-03-22T10:18:36.527Z,11.60
2019-03-22T10:21:05.292Z,11.40
2019-03-22T10:23:35.736Z,11.40
2019-03-22T10:26:05.950Z,11.60
2019-03-22T10:28:37.386Z,11.50
2019-03-22T10:31:07.723Z,11.40
2019-03-22T10:33:37.929Z,11.30
2019-03-22T10:36:08.185Z,11.70
2019-03-22T10:38:38.319Z,12.10
2019-03-22T10:41:08.471Z,12.30
2019-03-22T10:43:38.742Z,12.40
2019-03-22T10:46:09.021Z,12.40
2019-03-22T10:48:40.832Z,12.40
2019-03-22T10:51:11.180Z,12.40
2019-03-22T10:53:41.365Z,12.30
2019-03-22T10:56:11.623Z,12.20
2019-03-22T10:58:41.767Z,12.20
2019-03-22T11:01:11.976Z,12.30
2019-03-22T11:03:42.162Z,12.30
2019-03-22T11:06:12.403Z,12.50
2019-03-22T11:08:42.551Z,12.70
2019-03-22T11:11:12.710Z,12.70
2019-03-22T11:13:42.871Z,12.60
2019-03-22T11:16:13.017Z,12.60
2019-03-22T11:18:43.186Z,12.70
2019-03-22T11:21:13.337Z,12.80
2019-03-22T11:23:43.498Z,13.00
2019-03-22T11:26:13.647Z,13.20
2019-03-22T11:28:43.834Z,13.20
2019-03-22T11:31:14.010Z,13.40
2019-03-22T11:33:44.166Z,13.40
2019-03-22T11:36:14.324Z,13.60
2019-03-22T11:38:44.506Z,13.70
2019-03-22T11:41:14.734Z,13.70
2019-03-22T11:43:44.878Z,13.80
2019-03-22T11:46:15.160Z,13.90
2019-03-22T11:48:45.298Z,14.10
2019-03-22T11:51:15.514Z,14.20
2019-03-22T11:53:45.678Z,14.30
2019-03-22T11:56:15.879Z,14.20
2019-03-22T11:58:46.050Z,14.30
2019-03-22T12:01:20.393Z,14.20
2019-03-22T12:03:48.174Z,14.30
2019-03-22T12:06:18.430Z,14.40
2019-03-22T12:08:48.873Z,14.40
2019-03-22T12:11:20.026Z,14.50
2019-03-22T12:13:50.151Z,14.60
2019-03-22T12:16:20.335Z,14.60
2019-03-22T12:18:50.558Z,14.70
2019-03-22T12:21:20.864Z,14.80
2019-03-22T12:23:51.003Z,14.80
2019-03-22T12:26:21.191Z,14.80
2019-03-22T12:28:51.384Z,14.90
2019-03-22T12:31:21.530Z,15.00
2019-03-22T12:33:51.683Z,15.00
2019-03-22T12:36:21.912Z,15.00
2019-03-22T12:38:52.190Z,15.00
2019-03-22T12:41:22.405Z,15.10
2019-03-22T12:43:52.592Z,15.10
2019-03-22T12:46:22.799Z,15.10
2019-03-22T12:48:52.974Z,15.30
2019-03-22T12:51:23.158Z,15.30
2019-03-22T12:53:53.326Z,15.40
2019-03-22T12:56:23.517Z,15.50
2019-03-22T12:58:53.674Z,15.50
2019-03-22T13:01:23.863Z,15.60
2019-03-22T13:03:54.029Z,15.70
2019-03-22T13:06:24.230Z,15.80
2019-03-22T13:08:54.397Z,15.70
2019-03-22T13:11:24.561Z,15.70
2019-03-22T13:13:54.746Z,15.80
2019-03-22T13:16:24.909Z,15.80
2019-03-22T13:18:55.061Z,15.90
2019-03-22T13:21:25.215Z,15.90
2019-03-22T13:23:55.345Z,15.80
2019-03-22T13:26:25.541Z,15.90
2019-03-22T13:28:55.708Z,16.00
2019-03-22T13:31:25.889Z,16.00
2019-03-22T13:33:56.054Z,16.10
2019-03-22T13:36:26.227Z,16.10
2019-03-22T13:38:56.422Z,16.00
2019-03-22T13:41:26.582Z,16.00
2019-03-22T13:43:56.798Z,16.10
2019-03-22T13:46:26.966Z,16.10
2019-03-22T13:48:57.193Z,16.10
2019-03-22T13:51:27.379Z,16.20
2019-03-22T13:53:57.523Z,16.20
2019-03-22T13:56:27.688Z,16.20
2019-03-22T13:58:57.836Z,16.30
2019-03-22T14:01:28.023Z,16.30
2019-03-22T14:03:58.273Z,16.30
2019-03-22T14:06:28.546Z,16.30
2019-03-22T14:08:58.765Z,16.40
2019-03-22T14:11:28.955Z,16.40
2019-03-22T14:13:59.130Z,16.40
2019-03-22T14:16:29.319Z,16.40
2019-03-22T14:19:00.095Z,16.30
2019-03-22T14:21:31.658Z,16.10
2019-03-22T14:24:01.921Z,15.80
2019-03-22T14:26:32.106Z,15.50
2019-03-22T14:29:02.258Z,15.30
2019-03-22T14:31:32.438Z,15.10
2019-03-22T14:34:02.590Z,15.00
2019-03-22T14:36:32.840Z,14.90
2019-03-22T14:39:03.788Z,14.90
2019-03-22T14:41:33.962Z,14.70
2019-03-22T14:44:04.524Z,14.50
2019-03-22T14:46:34.948Z,14.40
2019-03-22T14:49:05.124Z,14.20
2019-03-22T14:51:35.860Z,14.30
2019-03-22T14:54:06.369Z,14.30
2019-03-22T14:56:37.685Z,14.30
2019-03-22T14:59:07.909Z,14.30
2019-03-22T15:01:38.089Z,14.20
2019-03-22T15:04:10.222Z,14.00
2019-03-22T15:06:40.095Z,13.50
2019-03-22T15:09:10.274Z,13.30
2019-03-22T15:11:40.456Z,13.10
2019-03-22T15:14:42.084Z,12.70
2019-03-22T15:17:21.006Z,12.30
2019-03-22T15:20:08.938Z,12.00
2019-03-22T15:22:57.099Z,11.70
2019-03-22T15:25:58.541Z,11.40
2019-03-22T15:28:52.333Z,11.30
2019-03-22T15:31:41.194Z,11.20
2019-03-22T15:34:29.126Z,10.70
2019-03-22T15:37:29.999Z,10.70
2019-03-22T15:40:04.258Z,10.50
2019-03-22T15:42:34.425Z,10.30
2019-03-22T15:45:06.289Z,10.20
2019-03-22T15:47:36.514Z,10.30
2019-03-22T15:50:07.922Z,10.40
2019-03-22T15:52:38.686Z,10.50
2019-03-22T15:55:09.040Z,10.50
2019-03-22T15:57:39.221Z,10.50
2019-03-22T16:00:12.650Z,10.50
2019-03-22T16:02:42.998Z,10.30
2019-03-22T16:05:13.696Z,10.20
2019-03-22T16:07:44.002Z,10.10
2019-03-22T16:10:14.548Z,9.90
2019-03-22T16:12:44.803Z,9.90
2019-03-22T16:15:16.235Z,10.00
2019-03-22T16:17:46.494Z,10.00
2019-03-22T16:20:16.730Z,10.20
2019-03-22T16:22:47.140Z,10.20
2019-03-22T16:25:17.442Z,10.00
2019-03-22T16:27:47.622Z,9.80
2019-03-22T16:30:18.010Z,9.70
2019-03-22T16:32:48.166Z,9.60
2019-03-22T16:35:18.417Z,9.50
2019-03-22T16:37:48.621Z,9.60
2019-03-22T16:40:24.154Z,9.60
2019-03-22T16:42:50.773Z,9.70
2019-03-22T16:45:38.329Z,9.70
2019-03-22T16:48:08.928Z,9.70
2019-03-22T16:50:40.127Z,9.70
2019-03-22T16:53:10.507Z,9.70
2019-03-22T16:55:40.668Z,9.60
2019-03-22T16:58:10.895Z,9.50
2019-03-22T17:00:41.217Z,9.50
2019-03-22T17:03:11.529Z,9.40
2019-03-22T17:05:41.821Z,9.40
2019-03-22T17:08:12.186Z,9.30
2019-03-22T17:10:42.606Z,9.20
2019-03-22T17:13:12.920Z,9.10
2019-03-22T17:15:43.101Z,9.10
2019-03-22T17:18:13.324Z,9.10
2019-03-22T17:20:43.497Z,9.10
2019-03-22T17:23:13.657Z,9.10
2019-03-22T17:25:44.810Z,9.20
2019-03-22T17:28:14.965Z,9.20
2019-03-22T17:30:45.145Z,9.10
2019-03-22T17:33:15.304Z,9.10
2019-03-22T17:35:45.650Z,9.10
2019-03-22T17:38:15.799Z,9.10
2019-03-22T17:40:46.328Z,9.10
2019-03-22T17:43:16.579Z,9.10
2019-03-22T17:45:46.865Z,9.00
2019-03-22T17:48:17.037Z,8.90
2019-03-22T17:50:47.192Z,8.90
2019-03-22T17:53:17.356Z,8.80
2019-03-22T17:55:47.509Z,8.80
2019-03-22T17:58:18.383Z,8.80
2019-03-22T18:00:48.802Z,8.70
2019-03-22T18:03:18.973Z,8.60
2019-03-22T18:05:49.175Z,8.60
2019-03-22T18:08:19.374Z,8.70
2019-03-22T18:10:50.605Z,8.60
2019-03-22T18:13:20.742Z,8.50
2019-03-22T18:15:50.878Z,8.50
2019-03-22T18:18:21.056Z,8.60
2019-03-22T18:20:51.189Z,8.50
2019-03-22T18:23:21.374Z,8.50
2019-03-22T18:25:51.533Z,8.50
2019-03-22T18:28:21.865Z,8.50
2019-03-22T18:30:52.070Z,8.50
2019-03-22T18:33:22.231Z,8.60
2019-03-22T18:35:52.384Z,8.60
2019-03-22T18:38:22.533Z,8.50
2019-03-22T18:40:52.690Z,8.50
2019-03-22T18:43:22.871Z,8.50
2019-03-22T18:45:53.061Z,8.40
2019-03-22T18:48:23.213Z,8.40
2019-03-22T18:50:57.019Z,8.40
2019-03-22T18:53:25.229Z,8.30
2019-03-22T18:55:55.392Z,8.30
2019-03-22T18:58:25.577Z,8.30
2019-03-22T19:00:55.737Z,8.30
2019-03-22T19:03:26.315Z,8.30
2019-03-22T19:05:56.674Z,8.40
2019-03-22T19:08:26.914Z,8.40
2019-03-22T19:10:57.130Z,8.40
2019-03-22T19:13:30.988Z,8.40
2019-03-22T19:15:59.314Z,8.30
2019-03-22T19:18:29.517Z,8.40
2019-03-22T19:20:59.769Z,8.40
2019-03-22T19:23:29.993Z,8.40
2019-03-22T19:26:00.170Z,8.40
2019-03-22T19:28:30.370Z,8.40
2019-03-22T19:31:00.552Z,8.40
2019-03-22T19:33:30.714Z,8.40
2019-03-22T19:36:00.973Z,8.40
2019-03-22T19:38:31.217Z,8.40
2019-03-22T19:41:01.415Z,8.40
2019-03-22T19:43:31.581Z,8.50
2019-03-22T19:46:01.840Z,8.50
2019-03-22T19:48:32.041Z,8.50
2019-03-22T19:51:02.258Z,8.50
2019-03-22T19:53:32.453Z,8.50
2019-03-22T19:56:02.609Z,8.60
2019-03-22T19:58:32.803Z,8.60
2019-03-22T20:01:03.246Z,8.60
2019-03-22T20:03:33.513Z,8.60
2019-03-22T20:06:03.879Z,8.60
2019-03-22T20:08:34.074Z,8.70
2019-03-22T20:11:04.477Z,8.70
2019-03-22T20:13:34.666Z,8.70
2019-03-22T20:16:04.943Z,8.70
2019-03-22T20:18:35.126Z,8.60
2019-03-22T20:21:05.469Z,8.60
2019-03-22T20:23:35.719Z,8.60
2019-03-22T20:26:06.079Z,8.60
2019-03-22T20:28:37.285Z,8.60
2019-03-22T20:31:07.551Z,8.60
2019-03-22T20:33:37.819Z,8.70
2019-03-22T20:36:08.118Z,8.70
2019-03-22T20:38:38.293Z,8.70
2019-03-22T20:41:08.500Z,8.70
2019-03-22T20:43:38.712Z,8.80
2019-03-22T20:46:08.954Z,8.80
2019-03-22T20:48:39.164Z,8.90
2019-03-22T20:51:09.378Z,8.90
2019-03-22T20:53:39.522Z,8.90
2019-03-22T20:56:09.687Z,9.00
2019-03-22T20:58:39.918Z,8.90
2019-03-22T21:01:10.096Z,9.00
2019-03-22T21:03:40.250Z,9.00
2019-03-22T21:06:10.440Z,9.00
2019-03-22T21:08:40.643Z,9.00
2019-03-22T21:11:10.894Z,9.00
2019-03-22T21:13:41.078Z,8.90
2019-03-22T21:16:11.361Z,8.90
2019-03-22T21:18:41.790Z,8.90
2019-03-22T21:21:11.987Z,8.90
2019-03-22T21:23:42.245Z,9.00
2019-03-22T21:26:12.431Z,9.00
2019-03-22T21:28:42.594Z,9.00
2019-03-22T21:31:12.867Z,9.00
2019-03-22T21:33:43.074Z,9.00
2019-03-22T21:36:13.226Z,9.00
2019-03-22T21:38:43.562Z,9.00
2019-03-22T21:41:14.030Z,9.00
2019-03-22T21:43:44.830Z,9.00
2019-03-22T21:46:15.414Z,9.00
2019-03-22T21:48:46.207Z,9.00
2019-03-22T21:51:17.040Z,9.00
2019-03-22T21:53:47.970Z,8.90
2019-03-22T21:56:18.434Z,9.00
2019-03-22T21:58:49.710Z,9.00
2019-03-22T22:01:20.109Z,9.00
2019-03-22T22:03:50.262Z,9.00
2019-03-22T22:06:20.519Z,9.10
2019-03-22T22:08:50.773Z,9.10
2019-03-22T22:11:21.017Z,9.10
2019-03-22T22:13:51.162Z,9.10
2019-03-22T22:16:21.395Z,9.10
2019-03-22T22:18:51.602Z,9.20
2019-03-22T22:21:21.787Z,9.20
2019-03-22T22:23:51.929Z,9.30
2019-03-22T22:26:22.162Z,9.30
2019-03-22T22:28:52.321Z,9.30
2019-03-22T22:31:22.461Z,9.30
2019-03-22T22:33:52.614Z,9.30
2019-03-22T22:36:22.757Z,9.40
2019-03-22T22:38:52.905Z,9.40
2019-03-22T22:41:23.079Z,9.50
2019-03-22T22:43:53.226Z,9.50
2019-03-22T22:46:23.384Z,9.50
2019-03-22T22:48:53.510Z,9.50
2019-03-22T22:51:23.733Z,9.50
2019-03-22T22:53:53.889Z,9.50
2019-03-22T22:56:24.026Z,9.50
2019-03-22T22:58:54.197Z,9.50
2019-03-22T23:01:24.443Z,9.40
2019-03-22T23:03:54.568Z,9.50
2019-03-22T23:06:24.736Z,9.50
2019-03-22T23:08:54.936Z,9.50
2019-03-22T23:11:25.157Z,9.50
2019-03-22T23:13:55.295Z,9.50
2019-03-22T23:16:25.435Z,9.50
2019-03-22T23:18:55.619Z,9.50
2019-03-22T23:21:25.809Z,9.60
2019-03-22T23:23:55.955Z,9.60
2019-03-22T23:26:26.106Z,9.50
2019-03-22T23:28:56.250Z,9.50
2019-03-22T23:31:26.428Z,9.50
2019-03-22T23:33:56.577Z,9.50
2019-03-22T23:36:26.716Z,9.50
2019-03-22T23:38:56.857Z,9.50
2019-03-22T23:41:27.054Z,9.50
2019-03-22T23:43:58.563Z,9.50
2019-03-22T23:46:28.762Z,9.50
2019-03-22T23:48:59.841Z,9.50
2019-03-22T23:51:30.068Z,9.50
2019-03-22T23:54:00.293Z,9.50
2019-03-22T23:56:30.425Z,9.50
2019-03-22T23:59:00.557Z,9.50
